sensor_id;sensor_type;location;lat;lon;timestamp;pressure;altitude;pressure_sealevel;temperature;humidity
1776;BME280;885;42.626;23.200;2023-09-12T00:00:42;92659.75;;;13.45;81.43
1776;BME280;885;42.626;23.200;2023-09-12T00:03:09;92801.19;;;13.42;83.08
1776;BME280;885;42.626;23.200;2023-09-12T00:05:36;93036.50;;;13.42;83.56
1776;BME280;885;42.626;23.200;2023-09-12T00:08:04;93068.56;;;13.41;84.47
1776;BME280;885;42.626;23.200;2023-09-12T00:10:31;92830.53;;;13.29;84.66
1776;BME280;885;42.626;23.200;2023-09-12T00:12:58;92782.38;;;13.23;85.43
1776;BME280;885;42.626;23.200;2023-09-12T00:15:26;92987.38;;;13.21;86.10
1776;BME280;885;42.626;23.200;2023-09-12T00:17:54;92972.75;;;13.15;86.38
1776;BME280;885;42.626;23.200;2023-09-12T00:20:21;92826.72;;;13.11;86.73
1776;BME280;885;42.626;23.200;2023-09-12T00:22:47;93009.59;;;13.09;87.56
1776;BME280;885;42.626;23.200;2023-09-12T00:25:14;93166.94;;;13.11;87.71
1776;BME280;885;42.626;23.200;2023-09-12T00:27:41;93133.97;;;13.10;87.67
1776;BME280;885;42.626;23.200;2023-09-12T00:30:08;93190.41;;;13.09;87.88
1776;BME280;885;42.626;23.200;2023-09-12T00:32:35;92997.81;;;12.91;87.98
1776;BME280;885;42.626;23.200;2023-09-12T00:35:04;93370.34;;;12.84;89.75
1776;BME280;885;42.626;23.200;2023-09-12T00:37:31;93792.00;;;12.85;90.33
1776;BME280;885;42.626;23.200;2023-09-12T00:39:58;94208.59;;;12.85;90.99
1776;BME280;885;42.626;23.200;2023-09-12T00:42:25;94956.09;;;12.84;91.66
1776;BME280;885;42.626;23.200;2023-09-12T00:44:52;96146.28;;;12.76;93.01
1776;BME280;885;42.626;23.200;2023-09-12T00:47:20;96601.59;;;12.69;92.09
1776;BME280;885;42.626;23.200;2023-09-12T00:49:47;97321.22;;;12.72;92.79
1776;BME280;885;42.626;23.200;2023-09-12T00:52:17;97736.53;;;12.76;92.67
1776;BME280;885;42.626;23.200;2023-09-12T00:54:45;97968.81;;;12.81;92.06
1776;BME280;885;42.626;23.200;2023-09-12T00:57:12;97806.19;;;12.73;91.91
1776;BME280;885;42.626;23.200;2023-09-12T00:59:39;98164.66;;;12.80;91.76
1776;BME280;885;42.626;23.200;2023-09-12T01:02:06;97464.25;;;12.72;91.05
1776;BME280;885;42.626;23.200;2023-09-12T01:04:33;97505.84;;;12.73;91.15
1776;BME280;885;42.626;23.200;2023-09-12T01:07:02;97551.88;;;12.70;91.51
1776;BME280;885;42.626;23.200;2023-09-12T01:09:30;97918.38;;;12.83;91.39
1776;BME280;885;42.626;23.200;2023-09-12T01:11:58;97432.25;;;12.74;90.75
1776;BME280;885;42.626;23.200;2023-09-12T01:14:25;96887.06;;;12.65;90.29
1776;BME280;885;42.626;23.200;2023-09-12T01:16:52;97002.03;;;12.58;91.35
1776;BME280;885;42.626;23.200;2023-09-12T01:19:19;96846.91;;;12.52;91.37
1776;BME280;885;42.626;23.200;2023-09-12T01:25:08;97790.19;;;12.50;93.27
1776;BME280;885;42.626;23.200;2023-09-12T01:27:41;98117.88;;;12.42;94.01
1776;BME280;885;42.626;23.200;2023-09-12T01:30:10;99126.44;;;12.45;94.72
1776;BME280;885;42.626;23.200;2023-09-12T01:32:37;99075.56;;;12.40;94.19
1776;BME280;885;42.626;23.200;2023-09-12T01:35:05;98288.97;;;12.44;92.41
1776;BME280;885;42.626;23.200;2023-09-12T01:37:32;97920.81;;;12.39;91.78
1776;BME280;885;42.626;23.200;2023-09-12T01:39:58;98304.94;;;12.50;91.74
1776;BME280;885;42.626;23.200;2023-09-12T01:42:30;98379.09;;;12.54;91.99
1776;BME280;885;42.626;23.200;2023-09-12T01:45:01;98120.03;;;12.47;91.59
1776;BME280;885;42.626;23.200;2023-09-12T01:47:28;98351.38;;;12.45;92.14
1776;BME280;885;42.626;23.200;2023-09-12T01:49:57;98551.06;;;12.47;92.64
1776;BME280;885;42.626;23.200;2023-09-12T01:52:26;98358.38;;;12.44;92.44
1776;BME280;885;42.626;23.200;2023-09-12T01:54:54;98276.16;;;12.39;92.73
1776;BME280;885;42.626;23.200;2023-09-12T01:57:22;98416.25;;;12.39;92.51
1776;BME280;885;42.626;23.200;2023-09-12T01:59:49;98492.28;;;12.31;94.03
1776;BME280;885;42.626;23.200;2023-09-12T02:02:17;99030.47;;;12.35;93.86
1776;BME280;885;42.626;23.200;2023-09-12T02:04:50;99823.09;;;12.34;95.47
1776;BME280;885;42.626;23.200;2023-09-12T02:07:18;100025.41;;;12.33;95.12
1776;BME280;885;42.626;23.200;2023-09-12T02:09:44;99927.81;;;12.31;94.74
1776;BME280;885;42.626;23.200;2023-09-12T02:12:11;100371.59;;;12.30;95.65
1776;BME280;885;42.626;23.200;2023-09-12T02:14:38;101215.97;;;12.25;96.50
1776;BME280;885;42.626;23.200;2023-09-12T02:17:05;102054.25;;;12.28;97.09
1776;BME280;885;42.626;23.200;2023-09-12T02:19:33;102337.97;;;12.30;96.53
1776;BME280;885;42.626;23.200;2023-09-12T02:21:59;102574.75;;;12.33;96.33
1776;BME280;885;42.626;23.200;2023-09-12T02:24:26;102981.91;;;12.30;96.68
1776;BME280;885;42.626;23.200;2023-09-12T02:26:53;103083.22;;;12.26;96.84
1776;BME280;885;42.626;23.200;2023-09-12T02:29:20;103316.63;;;12.23;96.88
1776;BME280;885;42.626;23.200;2023-09-12T02:31:47;103484.13;;;12.17;97.17
1776;BME280;885;42.626;23.200;2023-09-12T02:34:14;102975.03;;;12.12;96.62
1776;BME280;885;42.626;23.200;2023-09-12T02:36:42;103302.91;;;12.13;96.97
1776;BME280;885;42.626;23.200;2023-09-12T02:39:08;103732.19;;;12.13;97.48
1776;BME280;885;42.626;23.200;2023-09-12T02:41:35;104994.19;;;12.15;98.46
1776;BME280;885;42.626;23.200;2023-09-12T02:44:02;104946.84;;;12.17;97.49
1776;BME280;885;42.626;23.200;2023-09-12T02:46:29;105714.13;;;12.22;98.06
1776;BME280;885;42.626;23.200;2023-09-12T02:48:55;106306.09;;;12.27;98.03
1776;BME280;885;42.626;23.200;2023-09-12T02:51:22;106449.63;;;12.25;97.79
1776;BME280;885;42.626;23.200;2023-09-12T02:53:51;106437.00;;;12.21;98.03
1776;BME280;885;42.626;23.200;2023-09-12T02:56:18;106366.88;;;12.19;97.91
1776;BME280;885;42.626;23.200;2023-09-12T02:58:46;106027.03;;;12.09;98.16
1776;BME280;885;42.626;23.200;2023-09-12T03:01:14;106008.84;;;12.00;98.44
1776;BME280;885;42.626;23.200;2023-09-12T03:03:41;106640.44;;;12.01;98.76
1776;BME280;885;42.626;23.200;2023-09-12T03:06:12;106734.63;;;12.03;98.72
1776;BME280;885;42.626;23.200;2023-09-12T03:08:39;107513.88;;;12.01;99.55
1776;BME280;885;42.626;23.200;2023-09-12T03:11:07;107177.69;;;12.02;98.36
1776;BME280;885;42.626;23.200;2023-09-12T03:13:34;107489.59;;;12.04;98.72
1776;BME280;885;42.626;23.200;2023-09-12T03:16:01;108413.47;;;12.06;99.39
1776;BME280;885;42.626;23.200;2023-09-12T03:18:28;109241.06;;;12.03;100.00
1776;BME280;885;42.626;23.200;2023-09-12T03:20:54;108881.91;;;11.90;100.00
1776;BME280;885;42.626;23.200;2023-09-12T03:23:21;109433.06;;;11.83;100.00
1776;BME280;885;42.626;23.200;2023-09-12T03:25:48;111002.25;;;11.82;100.00
1776;BME280;885;42.626;23.200;2023-09-12T03:28:16;111846.78;;;11.82;100.00
1776;BME280;885;42.626;23.200;2023-09-12T03:30:43;111828.75;;;11.72;100.00
1776;BME280;885;42.626;23.200;2023-09-12T03:33:10;111452.97;;;11.67;100.00
1776;BME280;885;42.626;23.200;2023-09-12T03:35:36;112561.53;;;11.71;100.00
1776;BME280;885;42.626;23.200;2023-09-12T03:38:03;113668.78;;;11.75;100.00
1776;BME280;885;42.626;23.200;2023-09-12T03:40:30;114039.47;;;11.77;100.00
1776;BME280;885;42.626;23.200;2023-09-12T03:42:57;115125.84;;;11.69;100.00
1776;BME280;885;42.626;23.200;2023-09-12T03:45:30;116236.69;;;11.74;100.00
1776;BME280;885;42.626;23.200;2023-09-12T03:47:57;116937.16;;;11.56;100.00
1776;BME280;885;42.626;23.200;2023-09-12T03:50:24;118395.56;;;11.50;100.00
1776;BME280;885;42.626;23.200;2023-09-12T03:52:51;118021.66;;;11.47;100.00
1776;BME280;885;42.626;23.200;2023-09-12T03:55:18;119123.47;;;11.47;100.00
1776;BME280;885;42.626;23.200;2023-09-12T03:57:45;120247.00;;;11.58;100.00
1776;BME280;885;42.626;23.200;2023-09-12T04:00:15;120628.13;;;11.65;100.00
1776;BME280;885;42.626;23.200;2023-09-12T04:02:43;119898.94;;;11.68;100.00
1776;BME280;885;42.626;23.200;2023-09-12T04:05:10;118792.66;;;11.66;100.00
1776;BME280;885;42.626;23.200;2023-09-12T04:07:37;118427.22;;;11.67;100.00
1776;BME280;885;42.626;23.200;2023-09-12T04:10:04;118434.88;;;11.71;100.00
1776;BME280;885;42.626;23.200;2023-09-12T04:12:31;118813.84;;;11.77;100.00
1776;BME280;885;42.626;23.200;2023-09-12T04:14:58;118445.44;;;11.76;100.00
1776;BME280;885;42.626;23.200;2023-09-12T04:17:24;118076.06;;;11.75;100.00
1776;BME280;885;42.626;23.200;2023-09-12T04:19:52;117329.00;;;11.69;100.00
1776;BME280;885;42.626;23.200;2023-09-12T04:22:19;117700.13;;;11.71;100.00
1776;BME280;885;42.626;23.200;2023-09-12T04:24:46;118073.22;;;11.74;100.00
1776;BME280;885;42.626;23.200;2023-09-12T04:27:12;118450.22;;;11.79;100.00
1776;BME280;885;42.626;23.200;2023-09-12T04:29:39;118833.06;;;11.87;100.00
1776;BME280;885;42.626;23.200;2023-09-12T04:32:06;119200.59;;;11.87;100.00
1776;BME280;885;42.626;23.200;2023-09-12T04:34:33;118833.06;;;11.87;100.00
1776;BME280;885;42.626;23.200;2023-09-12T04:37:02;118452.13;;;11.80;100.00
1776;BME280;885;42.626;23.200;2023-09-12T04:39:30;118443.50;;;11.75;100.00
1776;BME280;885;42.626;23.200;2023-09-12T04:41:57;118071.34;;;11.73;100.00
1776;BME280;885;42.626;23.200;2023-09-12T04:44:24;118078.97;;;11.77;100.00
1776;BME280;885;42.626;23.200;2023-09-12T04:46:51;117721.06;;;11.82;99.53
1776;BME280;885;42.626;23.200;2023-09-12T04:49:17;117722.03;;;11.82;99.73
1776;BME280;885;42.626;23.200;2023-09-12T04:51:44;118090.41;;;11.83;100.00
1776;BME280;885;42.626;23.200;2023-09-12T04:54:12;118092.31;;;11.84;100.00
1776;BME280;885;42.626;23.200;2023-09-12T04:56:39;118467.44;;;11.88;100.00
1776;BME280;885;42.626;23.200;2023-09-12T04:59:06;119221.81;;;11.98;100.00
1776;BME280;885;42.626;23.200;2023-09-12T05:01:33;119962.00;;;12.01;100.00
1776;BME280;885;42.626;23.200;2023-09-12T05:03:59;120336.56;;;12.04;100.00
1776;BME280;885;42.626;23.200;2023-09-12T05:06:26;120344.34;;;12.08;100.00
1776;BME280;885;42.626;23.200;2023-09-12T05:08:53;121094.69;;;12.16;100.00
1776;BME280;885;42.626;23.200;2023-09-12T05:11:22;120726.78;;;12.16;100.00
1776;BME280;885;42.626;23.200;2023-09-12T05:13:49;120741.44;;;12.23;100.00
1776;BME280;885;42.626;23.200;2023-09-12T05:16:15;120749.28;;;12.27;100.00
1776;BME280;885;42.626;23.200;2023-09-12T05:18:42;121129.00;;;12.33;100.00
1776;BME280;885;42.626;23.200;2023-09-12T05:21:09;121500.97;;;12.35;100.00
1776;BME280;885;42.626;23.200;2023-09-12T05:23:36;122609.28;;;12.37;100.00
1776;BME280;885;42.626;23.200;2023-09-12T05:26:02;123339.69;;;12.34;100.00
1776;BME280;885;42.626;23.200;2023-09-12T05:28:31;123353.69;;;12.41;100.00
1776;BME280;885;42.626;23.200;2023-09-12T05:30:57;123372.63;;;12.51;100.00
1776;BME280;885;42.626;23.200;2023-09-12T05:33:24;123015.28;;;12.56;100.00
1776;BME280;885;42.626;23.200;2023-09-12T05:35:53;123025.22;;;12.61;100.00
1776;BME280;885;42.626;23.200;2023-09-12T05:38:19;123030.22;;;12.64;100.00
1776;BME280;885;42.626;23.200;2023-09-12T05:40:46;123039.19;;;12.68;100.00
1776;BME280;885;42.626;23.200;2023-09-12T05:43:15;123068.03;;;12.83;99.21
1776;BME280;885;42.626;23.200;2023-09-12T05:45:44;123071.03;;;12.85;99.50
1776;BME280;885;42.626;23.200;2023-09-12T05:48:11;123073.03;;;12.86;99.39
1776;BME280;885;42.626;23.200;2023-09-12T05:50:37;123082.97;;;12.91;98.75
1776;BME280;885;42.626;23.200;2023-09-12T05:53:04;123090.94;;;12.95;98.70
1776;BME280;885;42.626;23.200;2023-09-12T05:55:31;123841.16;;;13.01;100.00
1776;BME280;885;42.626;23.200;2023-09-12T05:57:58;124965.56;;;13.10;100.00
1776;BME280;885;42.626;23.200;2023-09-12T06:00:25;125352.69;;;13.19;100.00
1776;BME280;885;42.626;23.200;2023-09-12T06:02:53;126112.03;;;13.30;100.00
1776;BME280;885;42.626;23.200;2023-09-12T06:05:19;126522.03;;;13.50;100.00
1776;BME280;885;42.626;23.200;2023-09-12T06:07:46;127317.19;;;13.78;99.04
1776;BME280;885;42.626;23.200;2023-09-12T06:10:13;127363.56;;;14.00;96.92
1776;BME280;885;42.626;23.200;2023-09-12T06:12:40;127772.44;;;14.19;95.80
1776;BME280;885;42.626;23.200;2023-09-12T06:15:07;128196.16;;;14.46;94.54
1776;BME280;885;42.626;23.200;2023-09-12T06:17:33;129404.50;;;14.93;92.36
1776;BME280;885;42.626;23.200;2023-09-12T06:20:02;130277.97;;;15.56;88.56
1776;BME280;885;42.626;23.200;2023-09-12T06:22:31;129603.53;;;15.88;84.75
1776;BME280;885;42.626;23.200;2023-09-12T06:24:59;128850.31;;;15.83;84.94
1776;BME280;885;42.626;23.200;2023-09-12T06:27:25;128441.13;;;15.64;86.41
1776;BME280;885;42.626;23.200;2023-09-12T06:29:52;127280.88;;;15.41;86.76
1776;BME280;885;42.626;23.200;2023-09-12T06:32:19;127262.34;;;15.32;88.22
1776;BME280;885;42.626;23.200;2023-09-12T06:34:46;127251.03;;;15.26;88.78
1776;BME280;885;42.626;23.200;2023-09-12T06:37:14;126868.44;;;15.20;88.99
1776;BME280;885;42.626;23.200;2023-09-12T06:39:40;126497.16;;;15.20;89.11
1776;BME280;885;42.626;23.200;2023-09-12T06:42:08;126500.22;;;15.21;88.97
1776;BME280;885;42.626;23.200;2023-09-12T06:44:35;126888.94;;;15.30;88.28
1776;BME280;885;42.626;23.200;2023-09-12T06:47:03;126911.50;;;15.41;87.29
1776;BME280;885;42.626;23.200;2023-09-12T06:49:30;126926.91;;;15.49;87.07
1776;BME280;885;42.626;23.200;2023-09-12T06:51:57;127335.44;;;15.67;86.52
1776;BME280;885;42.626;23.200;2023-09-12T06:54:25;127726.66;;;15.77;86.35
1776;BME280;885;42.626;23.200;2023-09-12T06:56:52;127730.78;;;15.79;86.74
1776;BME280;885;42.626;23.200;2023-09-12T06:59:19;127731.81;;;15.80;86.81
1776;BME280;885;42.626;23.200;2023-09-12T07:01:46;127747.34;;;15.87;85.80
1776;BME280;885;42.626;23.200;2023-09-12T07:04:13;127767.97;;;15.98;84.74
1776;BME280;885;42.626;23.200;2023-09-12T07:06:40;127789.66;;;16.08;84.00
1776;BME280;885;42.626;23.200;2023-09-12T07:09:07;128184.31;;;16.20;83.93
1776;BME280;885;42.626;23.200;2023-09-12T07:11:38;128581.28;;;16.32;84.09
1776;BME280;885;42.626;23.200;2023-09-12T07:14:05;129358.00;;;16.49;84.16
1776;BME280;885;42.626;23.200;2023-09-12T07:16:32;129389.41;;;16.64;82.21
1776;BME280;885;42.626;23.200;2023-09-12T07:19:01;129782.78;;;16.75;83.18
1776;BME280;885;42.626;23.200;2023-09-12T07:21:29;130552.09;;;16.87;82.78
1776;BME280;885;42.626;23.200;2023-09-12T07:23:56;130948.03;;;16.99;83.22
1776;BME280;885;42.626;23.200;2023-09-12T07:26:23;131736.19;;;17.20;82.71
1776;BME280;885;42.626;23.200;2023-09-12T07:28:51;131791.56;;;17.46;80.64
1776;BME280;885;42.626;23.200;2023-09-12T07:31:18;132205.31;;;17.66;79.48
1776;BME280;885;42.626;23.200;2023-09-12T07:33:45;132992.78;;;17.86;79.58
1776;BME280;885;42.626;23.200;2023-09-12T07:36:12;132652.53;;;18.01;76.61
1776;BME280;885;42.626;23.200;2023-09-12T07:38:38;133439.50;;;18.20;77.34
1776;BME280;885;42.626;23.200;2023-09-12T07:41:06;133850.03;;;18.38;76.78
1776;BME280;885;42.626;23.200;2023-09-12T07:43:33;132768.25;;;18.55;73.02
1776;BME280;885;42.626;23.200;2023-09-12T07:46:01;133559.22;;;18.76;73.26
1776;BME280;885;42.626;23.200;2023-09-12T07:48:30;135108.19;;;19.02;75.79
1776;BME280;885;42.626;23.200;2023-09-12T07:50:57;134037.09;;;19.25;69.07
1776;BME280;885;42.626;23.200;2023-09-12T07:53:24;132214.59;;;19.46;63.78
1776;BME280;885;42.626;23.200;2023-09-12T07:55:51;134112.88;;;19.60;68.75
1776;BME280;885;42.626;23.200;2023-09-12T07:58:20;132660.56;;;19.80;63.33
1776;BME280;885;42.626;23.200;2023-09-12T08:00:47;133491.63;;;20.19;61.93
1776;BME280;885;42.626;23.200;2023-09-12T08:03:15;134680.72;;;20.50;64.70
1776;BME280;885;42.626;23.200;2023-09-12T08:05:42;136593.75;;;20.70;68.14
1776;BME280;885;42.626;23.200;2023-09-12T08:08:08;135511.00;;;20.88;64.04
1776;BME280;885;42.626;23.200;2023-09-12T08:10:35;135916.16;;;21.02;63.81
1776;BME280;885;42.626;23.200;2023-09-12T08:13:02;135577.66;;;21.19;61.89
1776;BME280;885;42.626;23.200;2023-09-12T08:15:29;135996.13;;;21.39;60.85
1776;BME280;885;42.626;23.200;2023-09-12T08:17:55;137539.97;;;21.59;64.29
1776;BME280;885;42.626;23.200;2023-09-12T08:20:24;137206.94;;;21.78;60.94
1776;BME280;885;42.626;23.200;2023-09-12T08:22:50;137241.22;;;21.94;59.97
1776;BME280;885;42.626;23.200;2023-09-12T08:25:17;136905.63;;;22.12;59.17
1776;BME280;885;42.626;23.200;2023-09-12T08:27:44;134690.06;;;22.29;53.99
1776;BME280;885;42.626;23.200;2023-09-12T08:30:11;133969.81;;;22.43;55.76
1776;BME280;885;42.626;23.200;2023-09-12T08:32:39;134364.50;;;22.52;56.16
1776;BME280;885;42.626;23.200;2023-09-12T08:35:09;135150.09;;;22.68;56.89
1776;BME280;885;42.626;23.200;2023-09-12T08:37:37;134422.91;;;22.79;54.86
1776;BME280;885;42.626;23.200;2023-09-12T08:40:06;135592.13;;;22.99;56.20
1776;BME280;885;42.626;23.200;2023-09-12T08:42:38;136017.09;;;23.21;55.24
1776;BME280;885;42.626;23.200;2023-09-12T08:45:11;136058.69;;;23.40;54.20
1776;BME280;885;42.626;23.200;2023-09-12T08:47:40;136078.41;;;23.49;53.67
1776;BME280;885;42.626;23.200;2023-09-12T08:50:10;136476.44;;;23.59;54.03
1776;BME280;885;42.626;23.200;2023-09-12T08:52:40;136132.00;;;23.74;52.59
1776;BME280;885;42.626;23.200;2023-09-12T08:55:08;136542.28;;;23.90;52.07
1776;BME280;885;42.626;23.200;2023-09-12T08:57:36;136565.31;;;24.00;52.15
1776;BME280;885;42.626;23.200;2023-09-12T09:00:05;136600.47;;;24.16;51.52
1776;BME280;885;42.626;23.200;2023-09-12T09:02:34;136629.00;;;24.29;50.54
1776;BME280;885;42.626;23.200;2023-09-12T09:05:02;136657.53;;;24.42;50.10
1776;BME280;885;42.626;23.200;2023-09-12T09:07:32;137073.91;;;24.61;50.16
1776;BME280;885;42.626;23.200;2023-09-12T09:10:03;137094.78;;;24.70;49.62
1776;BME280;885;42.626;23.200;2023-09-12T09:12:31;137105.88;;;24.75;50.12
1776;BME280;885;42.626;23.200;2023-09-12T09:14:58;137131.16;;;24.87;48.95
1776;BME280;885;42.626;23.200;2023-09-12T09:17:26;137162.03;;;25.01;48.76
1776;BME280;885;42.626;23.200;2023-09-12T09:19:52;137573.38;;;25.16;47.99
1776;BME280;885;42.626;23.200;2023-09-12T09:22:19;137209.34;;;25.22;47.88
1776;BME280;885;42.626;23.200;2023-09-12T09:24:46;137231.38;;;25.33;47.10
1776;BME280;885;42.626;23.200;2023-09-12T09:27:32;137254.56;;;25.43;47.48
1776;BME280;885;42.626;23.200;2023-09-12T09:29:59;137275.50;;;25.53;46.18
1776;BME280;885;42.626;23.200;2023-09-12T09:32:26;137691.59;;;25.70;46.16
1776;BME280;885;42.626;23.200;2023-09-12T09:34:53;137715.91;;;25.81;45.82
1776;BME280;885;42.626;23.200;2023-09-12T09:37:20;137744.66;;;25.94;45.41
1776;BME280;885;42.626;23.200;2023-09-12T09:39:47;138141.22;;;26.03;46.29
1776;BME280;885;42.626;23.200;2023-09-12T09:42:18;138550.19;;;26.17;46.06
1776;BME280;885;42.626;23.200;2023-09-12T09:44:46;138165.63;;;26.14;45.38
1776;BME280;885;42.626;23.200;2023-09-12T09:47:14;137394.47;;;26.07;44.87
1776;BME280;885;42.626;23.200;2023-09-12T09:49:40;138526.81;;;26.07;48.16
1776;BME280;885;42.626;23.200;2023-09-12T09:52:12;138561.34;;;26.22;46.49
1776;BME280;885;42.626;23.200;2023-09-12T09:54:43;138207.75;;;26.33;44.57
1776;BME280;885;42.626;23.200;2023-09-12T09:57:09;139010.63;;;26.54;45.57
1776;BME280;885;42.626;23.200;2023-09-12T09:59:37;138238.81;;;26.47;44.61
1776;BME280;885;42.626;23.200;2023-09-12T10:02:08;139041.88;;;26.68;44.63
1776;BME280;885;42.626;23.200;2023-09-12T10:04:38;139845.63;;;26.90;45.13
1776;BME280;885;42.626;23.200;2023-09-12T10:07:06;140269.13;;;27.10;44.18
1776;BME280;885;42.626;23.200;2023-09-12T10:09:34;139882.66;;;27.06;44.11
1776;BME280;885;42.626;23.200;2023-09-12T10:12:02;139132.22;;;27.09;42.01
1776;BME280;885;42.626;23.200;2023-09-12T10:14:29;139501.81;;;27.05;43.55
1776;BME280;885;42.626;23.200;2023-09-12T10:17:01;139145.59;;;27.15;42.98
1776;BME280;885;42.626;23.200;2023-09-12T10:19:34;140347.91;;;27.45;42.31
1776;BME280;885;42.626;23.200;2023-09-12T10:22:06;140753.84;;;27.57;42.87
1776;BME280;885;42.626;23.200;2023-09-12T10:24:34;140383.88;;;27.61;42.34
1776;BME280;885;42.626;23.200;2023-09-12T10:27:02;140409.78;;;27.73;41.69
1776;BME280;885;42.626;23.200;2023-09-12T10:29:30;140835.09;;;27.93;40.77
1776;BME280;885;42.626;23.200;2023-09-12T10:31:59;141259.63;;;28.13;40.62
1776;BME280;885;42.626;23.200;2023-09-12T10:34:27;141675.34;;;28.29;41.22
1776;BME280;885;42.626;23.200;2023-09-12T10:36:58;140889.28;;;28.17;40.50
1776;BME280;885;42.626;23.200;2023-09-12T10:39:26;141285.66;;;28.25;40.55
1776;BME280;885;42.626;23.200;2023-09-12T10:41:54;141686.66;;;28.35;41.18
1776;BME280;885;42.626;23.200;2023-09-12T10:44:21;141702.56;;;28.42;40.68
1776;BME280;885;42.626;23.200;2023-09-12T10:46:50;142100.38;;;28.50;41.18
1776;BME280;885;42.626;23.200;2023-09-12T10:49:20;141748.00;;;28.62;40.08
1776;BME280;885;42.626;23.200;2023-09-12T10:51:47;140159.81;;;28.30;38.81
1776;BME280;885;42.626;23.200;2023-09-12T10:54:16;140543.72;;;28.33;40.17
1776;BME280;885;42.626;23.200;2023-09-12T10:56:42;141732.09;;;28.55;41.20
1776;BME280;885;42.626;23.200;2023-09-12T10:59:11;141368.31;;;28.62;40.07
1776;BME280;885;42.626;23.200;2023-09-12T11:01:39;141369.44;;;28.62;39.28
1776;BME280;885;42.626;23.200;2023-09-12T11:04:33;142173.28;;;28.82;39.95
1776;BME280;885;42.626;23.200;2023-09-12T11:07:00;141429.44;;;28.89;38.35
1776;BME280;885;42.626;23.200;2023-09-12T11:09:27;139800.63;;;28.40;38.75
1776;BME280;885;42.626;23.200;2023-09-12T11:11:56;141004.47;;;28.69;39.00
1776;BME280;885;42.626;23.200;2023-09-12T11:14:23;141432.88;;;28.90;38.53
1776;BME280;885;42.626;23.200;2023-09-12T11:17:22;142628.56;;;29.15;39.60
1776;BME280;885;42.626;23.200;2023-09-12T11:19:52;142681.09;;;29.38;38.29
1776;BME280;885;42.626;23.200;2023-09-12T11:22:23;143081.94;;;29.47;38.16
1776;BME280;885;42.626;23.200;2023-09-12T11:24:51;142309.94;;;29.42;37.31
1776;BME280;885;42.626;23.200;2023-09-12T11:27:17;142715.34;;;29.53;37.53
1776;BME280;885;42.626;23.200;2023-09-12T11:29:45;142722.19;;;29.56;37.46
1776;BME280;885;42.626;23.200;2023-09-12T11:32:25;141533.66;;;29.35;37.21
1776;BME280;885;42.626;23.200;2023-09-12T11:34:53;141912.66;;;29.35;38.17
1776;BME280;885;42.626;23.200;2023-09-12T11:37:24;141547.22;;;29.41;37.47
1776;BME280;885;42.626;23.200;2023-09-12T11:39:51;142335.00;;;29.53;37.86
1776;BME280;885;42.626;23.200;2023-09-12T11:42:18;141952.41;;;29.52;37.47
1776;BME280;885;42.626;23.200;2023-09-12T11:44:44;141963.78;;;29.57;37.66
1776;BME280;885;42.626;23.200;2023-09-12T11:47:12;141971.72;;;29.61;36.79
1776;BME280;885;42.626;23.200;2023-09-12T11:49:40;141164.84;;;29.40;37.43
1776;BME280;885;42.626;23.200;2023-09-12T11:52:10;140720.50;;;29.12;38.83
1776;BME280;885;42.626;23.200;2023-09-12T11:54:38;141160.31;;;29.38;37.80
1776;BME280;885;42.626;23.200;2023-09-12T11:57:07;141574.44;;;29.53;37.92
1776;BME280;885;42.626;23.200;2023-09-12T11:59:37;142372.59;;;29.70;37.75
1776;BME280;885;42.626;23.200;2023-09-12T12:02:07;142818.16;;;29.99;36.82
1776;BME280;885;42.626;23.200;2023-09-12T12:04:35;142831.88;;;30.05;37.26
1776;BME280;885;42.626;23.200;2023-09-12T12:07:03;143251.53;;;30.22;36.47
1776;BME280;885;42.626;23.200;2023-09-12T12:09:32;143651.94;;;30.30;36.21
1776;BME280;885;42.626;23.200;2023-09-12T12:12:04;142874.13;;;30.23;36.12
1776;BME280;885;42.626;23.200;2023-09-12T12:14:34;141222.44;;;29.66;36.94
1776;BME280;885;42.626;23.200;2023-09-12T12:17:06;139986.53;;;29.23;38.24
1776;BME280;885;42.626;23.200;2023-09-12T12:19:33;140402.38;;;29.39;37.66
1776;BME280;885;42.626;23.200;2023-09-12T12:22:03;141624.31;;;29.75;37.14
1776;BME280;885;42.626;23.200;2023-09-12T12:24:38;141656.00;;;29.90;36.53
1776;BME280;885;42.626;23.200;2023-09-12T12:27:08;142071.75;;;30.05;36.73
1776;BME280;885;42.626;23.200;2023-09-12T12:29:37;142489.94;;;30.22;35.82
1776;BME280;885;42.626;23.200;2023-09-12T12:32:05;141714.94;;;30.16;35.09
1776;BME280;885;42.626;23.200;2023-09-12T12:34:34;142110.38;;;30.22;36.18
1776;BME280;885;42.626;23.200;2023-09-12T12:37:01;142102.38;;;30.19;36.08
1776;BME280;885;42.626;23.200;2023-09-12T12:39:28;142934.72;;;30.50;35.16
1776;BME280;885;42.626;23.200;2023-09-12T12:41:56;143359.25;;;30.69;35.14
1776;BME280;885;42.626;23.200;2023-09-12T12:44:32;143396.00;;;30.85;34.43
1776;BME280;885;42.626;23.200;2023-09-12T12:47:03;143789.84;;;30.91;34.69
1776;BME280;885;42.626;23.200;2023-09-12T12:49:36;143018.22;;;30.87;34.49
1776;BME280;885;42.626;23.200;2023-09-12T12:52:03;142606.19;;;30.73;34.81
1776;BME280;885;42.626;23.200;2023-09-12T12:54:31;141785.22;;;30.47;35.08
1776;BME280;885;42.626;23.200;2023-09-12T12:57:00;141756.91;;;30.34;35.81
1776;BME280;885;42.626;23.200;2023-09-12T12:59:27;141399.88;;;30.45;34.76
1776;BME280;885;42.626;23.200;2023-09-12T13:01:55;141395.38;;;30.43;34.97
1776;BME280;885;42.626;23.200;2023-09-12T13:04:23;141381.81;;;30.37;35.00
1776;BME280;885;42.626;23.200;2023-09-12T13:06:50;140581.03;;;30.19;34.86
1776;BME280;885;42.626;23.200;2023-09-12T13:09:17;139770.84;;;29.97;35.43
1776;BME280;885;42.626;23.200;2023-09-12T13:11:44;140559.69;;;30.10;35.78
1776;BME280;885;42.626;23.200;2023-09-12T13:14:12;140216.19;;;30.26;34.08
1776;BME280;885;42.626;23.200;2023-09-12T13:16:39;139780.91;;;30.02;35.24